sensor_id;sensor_type;location;lat;lon;timestamp;temperature;humidity
48515;DHT22;34309;47.260;2.796;2023-12-22T00:01:08;19.50;26.60
48515;DHT22;34309;47.260;2.796;2023-12-22T00:03:43;19.50;26.50
48515;DHT22;34309;47.260;2.796;2023-12-22T00:06:18;19.50;26.70
48515;DHT22;34309;47.260;2.796;2023-12-22T00:08:52;19.50;26.60
48515;DHT22;34309;47.260;2.796;2023-12-22T00:11:26;19.50;26.60
48515;DHT22;34309;47.260;2.796;2023-12-22T00:14:03;19.50;26.60
48515;DHT22;34309;47.260;2.796;2023-12-22T00:16:37;19.50;26.60
48515;DHT22;34309;47.260;2.796;2023-12-22T00:19:12;19.50;26.60
48515;DHT22;34309;47.260;2.796;2023-12-22T00:21:46;19.50;26.50
48515;DHT22;34309;47.260;2.796;2023-12-22T00:24:20;19.50;26.60
48515;DHT22;34309;47.260;2.796;2023-12-22T00:26:54;19.40;26.50
48515;DHT22;34309;47.260;2.796;2023-12-22T00:29:28;19.40;26.60
48515;DHT22;34309;47.260;2.796;2023-12-22T00:32:02;19.40;26.50
48515;DHT22;34309;47.260;2.796;2023-12-22T00:34:38;19.50;26.60
48515;DHT22;34309;47.260;2.796;2023-12-22T00:37:12;19.40;26.60
48515;DHT22;34309;47.260;2.796;2023-12-22T00:39:45;19.40;26.40
48515;DHT22;34309;47.260;2.796;2023-12-22T00:42:19;19.40;26.50
48515;DHT22;34309;47.260;2.796;2023-12-22T00:44:52;19.40;26.50
48515;DHT22;34309;47.260;2.796;2023-12-22T00:47:29;19.40;26.50
48515;DHT22;34309;47.260;2.796;2023-12-22T00:50:05;19.40;26.50
48515;DHT22;34309;47.260;2.796;2023-12-22T00:52:40;19.40;26.50
48515;DHT22;34309;47.260;2.796;2023-12-22T00:55:17;19.40;26.50
48515;DHT22;34309;47.260;2.796;2023-12-22T00:57:51;19.40;26.40
48515;DHT22;34309;47.260;2.796;2023-12-22T01:00:26;19.40;26.50
48515;DHT22;34309;47.260;2.796;2023-12-22T01:03:00;19.40;26.50
48515;DHT22;34309;47.260;2.796;2023-12-22T01:05:36;19.40;26.40
48515;DHT22;34309;47.260;2.796;2023-12-22T01:08:10;19.40;26.50
48515;DHT22;34309;47.260;2.796;2023-12-22T01:10:39;19.40;26.50
48515;DHT22;34309;47.260;2.796;2023-12-22T01:13:13;19.40;26.60
48515;DHT22;34309;47.260;2.796;2023-12-22T01:15:47;19.40;27.10
48515;DHT22;34309;47.260;2.796;2023-12-22T01:18:21;19.40;26.50
48515;DHT22;34309;47.260;2.796;2023-12-22T01:20:59;19.40;26.60
48515;DHT22;34309;47.260;2.796;2023-12-22T01:23:33;19.40;26.60
48515;DHT22;34309;47.260;2.796;2023-12-22T01:26:06;19.30;26.50
48515;DHT22;34309;47.260;2.796;2023-12-22T01:28:40;19.40;26.50
48515;DHT22;34309;47.260;2.796;2023-12-22T01:31:15;19.40;26.60
48515;DHT22;34309;47.260;2.796;2023-12-22T01:33:49;19.30;26.70
48515;DHT22;34309;47.260;2.796;2023-12-22T01:36:24;19.40;26.70
48515;DHT22;34309;47.260;2.796;2023-12-22T01:38:58;19.40;26.80
48515;DHT22;34309;47.260;2.796;2023-12-22T01:41:32;19.30;26.50
48515;DHT22;34309;47.260;2.796;2023-12-22T01:44:06;19.30;26.60
48515;DHT22;34309;47.260;2.796;2023-12-22T01:46:40;19.30;26.50
48515;DHT22;34309;47.260;2.796;2023-12-22T01:49:14;19.30;26.40
48515;DHT22;34309;47.260;2.796;2023-12-22T01:51:50;19.30;26.60
48515;DHT22;34309;47.260;2.796;2023-12-22T01:54:28;19.30;26.50
48515;DHT22;34309;47.260;2.796;2023-12-22T01:57:04;19.30;26.60
48515;DHT22;34309;47.260;2.796;2023-12-22T01:59:39;19.30;26.60
48515;DHT22;34309;47.260;2.796;2023-12-22T02:02:13;19.30;26.80
48515;DHT22;34309;47.260;2.796;2023-12-22T02:04:47;19.30;26.50
48515;DHT22;34309;47.260;2.796;2023-12-22T02:07:23;19.30;26.50
48515;DHT22;34309;47.260;2.796;2023-12-22T02:09:57;19.30;26.40
48515;DHT22;34309;47.260;2.796;2023-12-22T02:12:31;19.30;26.50
48515;DHT22;34309;47.260;2.796;2023-12-22T02:15:06;19.30;26.40
48515;DHT22;34309;47.260;2.796;2023-12-22T02:17:51;19.30;26.40
48515;DHT22;34309;47.260;2.796;2023-12-22T02:20:29;19.30;26.40
48515;DHT22;34309;47.260;2.796;2023-12-22T02:23:08;19.30;26.30
48515;DHT22;34309;47.260;2.796;2023-12-22T02:25:42;19.30;26.40
48515;DHT22;34309;47.260;2.796;2023-12-22T02:28:18;19.30;26.40
48515;DHT22;34309;47.260;2.796;2023-12-22T02:30:56;19.30;26.40
48515;DHT22;34309;47.260;2.796;2023-12-22T02:33:31;19.30;26.30
48515;DHT22;34309;47.260;2.796;2023-12-22T02:36:09;19.30;26.30
48515;DHT22;34309;47.260;2.796;2023-12-22T02:38:45;19.30;26.40
48515;DHT22;34309;47.260;2.796;2023-12-22T02:41:20;19.30;26.40
48515;DHT22;34309;47.260;2.796;2023-12-22T02:43:55;19.30;26.40
48515;DHT22;34309;47.260;2.796;2023-12-22T02:46:29;19.30;26.40
48515;DHT22;34309;47.260;2.796;2023-12-22T02:49:03;19.30;26.40
48515;DHT22;34309;47.260;2.796;2023-12-22T02:51:36;19.30;26.30
48515;DHT22;34309;47.260;2.796;2023-12-22T02:54:12;19.30;26.30
48515;DHT22;34309;47.260;2.796;2023-12-22T02:56:46;19.30;26.30
48515;DHT22;34309;47.260;2.796;2023-12-22T02:59:20;19.30;26.30
48515;DHT22;34309;47.260;2.796;2023-12-22T03:01:54;19.30;26.30
48515;DHT22;34309;47.260;2.796;2023-12-22T03:04:31;19.30;26.40
48515;DHT22;34309;47.260;2.796;2023-12-22T03:07:05;19.30;26.30
48515;DHT22;34309;47.260;2.796;2023-12-22T03:09:40;19.30;26.30
48515;DHT22;34309;47.260;2.796;2023-12-22T03:12:14;19.30;26.30
48515;DHT22;34309;47.260;2.796;2023-12-22T03:14:48;19.30;26.30
48515;DHT22;34309;47.260;2.796;2023-12-22T03:17:22;19.30;26.40
48515;DHT22;34309;47.260;2.796;2023-12-22T03:19:56;19.20;26.30
48515;DHT22;34309;47.260;2.796;2023-12-22T03:22:31;19.20;26.40
48515;DHT22;34309;47.260;2.796;2023-12-22T03:25:07;19.30;26.30
48515;DHT22;34309;47.260;2.796;2023-12-22T03:27:42;19.30;26.50
48515;DHT22;34309;47.260;2.796;2023-12-22T03:30:16;19.20;26.40
48515;DHT22;34309;47.260;2.796;2023-12-22T03:32:50;19.20;26.30
48515;DHT22;34309;47.260;2.796;2023-12-22T03:35:23;19.20;26.30
48515;DHT22;34309;47.260;2.796;2023-12-22T03:37:57;19.20;26.20
48515;DHT22;34309;47.260;2.796;2023-12-22T03:40:32;19.20;26.40
48515;DHT22;34309;47.260;2.796;2023-12-22T03:43:06;19.20;26.30
48515;DHT22;34309;47.260;2.796;2023-12-22T03:45:40;19.20;26.40
48515;DHT22;34309;47.260;2.796;2023-12-22T03:48:14;19.20;26.40
48515;DHT22;34309;47.260;2.796;2023-12-22T03:50:49;19.20;26.30
48515;DHT22;34309;47.260;2.796;2023-12-22T03:53:24;19.20;26.30
48515;DHT22;34309;47.260;2.796;2023-12-22T03:55:59;19.20;26.40
48515;DHT22;34309;47.260;2.796;2023-12-22T03:58:33;19.20;26.40
48515;DHT22;34309;47.260;2.796;2023-12-22T04:01:07;19.20;26.50
48515;DHT22;34309;47.260;2.796;2023-12-22T04:03:41;19.20;26.30
48515;DHT22;34309;47.260;2.796;2023-12-22T04:06:15;19.20;26.30
48515;DHT22;34309;47.260;2.796;2023-12-22T04:08:49;19.20;26.20
48515;DHT22;34309;47.260;2.796;2023-12-22T04:11:24;19.20;26.30
48515;DHT22;34309;47.260;2.796;2023-12-22T04:13:58;19.20;26.30
48515;DHT22;34309;47.260;2.796;2023-12-22T04:16:32;19.20;26.30
48515;DHT22;34309;47.260;2.796;2023-12-22T04:19:05;19.20;26.40
48515;DHT22;34309;47.260;2.796;2023-12-22T04:21:39;19.20;26.40
48515;DHT22;34309;47.260;2.796;2023-12-22T04:24:13;19.20;26.40
48515;DHT22;34309;47.260;2.796;2023-12-22T04:26:49;19.20;26.40
48515;DHT22;34309;47.260;2.796;2023-12-22T04:29:22;19.20;26.40
48515;DHT22;34309;47.260;2.796;2023-12-22T04:31:56;19.10;26.30
48515;DHT22;34309;47.260;2.796;2023-12-22T04:34:30;19.10;26.40
48515;DHT22;34309;47.260;2.796;2023-12-22T04:37:03;19.20;26.40
48515;DHT22;34309;47.260;2.796;2023-12-22T04:39:37;19.10;26.30
48515;DHT22;34309;47.260;2.796;2023-12-22T04:42:13;19.10;26.30
48515;DHT22;34309;47.260;2.796;2023-12-22T04:44:46;19.10;26.30
48515;DHT22;34309;47.260;2.796;2023-12-22T04:47:20;19.10;26.90
48515;DHT22;34309;47.260;2.796;2023-12-22T04:49:54;19.10;26.50
48515;DHT22;34309;47.260;2.796;2023-12-22T04:52:28;19.10;26.40
48515;DHT22;34309;47.260;2.796;2023-12-22T04:55:02;19.10;26.40
48515;DHT22;34309;47.260;2.796;2023-12-22T04:57:38;19.10;26.30
48515;DHT22;34309;47.260;2.796;2023-12-22T05:00:12;19.10;26.40
48515;DHT22;34309;47.260;2.796;2023-12-22T05:02:46;19.10;26.30
48515;DHT22;34309;47.260;2.796;2023-12-22T05:05:20;19.10;26.20
48515;DHT22;34309;47.260;2.796;2023-12-22T05:07:53;19.10;26.30
48515;DHT22;34309;47.260;2.796;2023-12-22T05:10:27;19.10;26.20
48515;DHT22;34309;47.260;2.796;2023-12-22T05:13:03;19.10;26.20
48515;DHT22;34309;47.260;2.796;2023-12-22T05:15:37;19.10;26.20
48515;DHT22;34309;47.260;2.796;2023-12-22T05:18:11;19.10;26.20
48515;DHT22;34309;47.260;2.796;2023-12-22T05:20:45;19.10;26.20
48515;DHT22;34309;47.260;2.796;2023-12-22T05:23:19;19.10;26.30
48515;DHT22;34309;47.260;2.796;2023-12-22T05:25:53;19.10;26.30
48515;DHT22;34309;47.260;2.796;2023-12-22T05:28:37;19.10;26.20
48515;DHT22;34309;47.260;2.796;2023-12-22T05:31:10;19.10;26.30
48515;DHT22;34309;47.260;2.796;2023-12-22T05:33:44;19.10;26.20
48515;DHT22;34309;47.260;2.796;2023-12-22T05:36:18;19.10;26.20
48515;DHT22;34309;47.260;2.796;2023-12-22T05:38:52;19.10;26.20
48515;DHT22;34309;47.260;2.796;2023-12-22T05:41:26;19.10;26.20
48515;DHT22;34309;47.260;2.796;2023-12-22T05:44:02;19.10;26.30
48515;DHT22;34309;47.260;2.796;2023-12-22T05:46:38;19.10;26.20
48515;DHT22;34309;47.260;2.796;2023-12-22T05:49:12;19.10;26.30
48515;DHT22;34309;47.260;2.796;2023-12-22T05:51:47;19.00;26.20
48515;DHT22;34309;47.260;2.796;2023-12-22T05:54:21;19.10;26.30
48515;DHT22;34309;47.260;2.796;2023-12-22T05:56:57;19.10;26.30
48515;DHT22;34309;47.260;2.796;2023-12-22T05:59:33;19.00;26.10
48515;DHT22;34309;47.260;2.796;2023-12-22T06:02:07;19.10;26.30
48515;DHT22;34309;47.260;2.796;2023-12-22T06:04:41;19.10;26.30
48515;DHT22;34309;47.260;2.796;2023-12-22T06:07:15;19.10;26.30
48515;DHT22;34309;47.260;2.796;2023-12-22T06:09:44;19.10;26.20
48515;DHT22;34309;47.260;2.796;2023-12-22T06:12:18;19.00;26.20
48515;DHT22;34309;47.260;2.796;2023-12-22T06:14:53;19.00;26.10
48515;DHT22;34309;47.260;2.796;2023-12-22T06:17:23;19.00;26.20
48515;DHT22;34309;47.260;2.796;2023-12-22T06:19:57;19.00;26.40
48515;DHT22;34309;47.260;2.796;2023-12-22T06:22:30;19.00;26.20
48515;DHT22;34309;47.260;2.796;2023-12-22T06:25:05;19.00;26.20
48515;DHT22;34309;47.260;2.796;2023-12-22T06:27:40;19.00;26.20
48515;DHT22;34309;47.260;2.796;2023-12-22T06:30:22;19.00;26.20
48515;DHT22;34309;47.260;2.796;2023-12-22T06:32:55;19.00;26.20
48515;DHT22;34309;47.260;2.796;2023-12-22T06:35:29;19.00;26.20
48515;DHT22;34309;47.260;2.796;2023-12-22T06:38:06;19.00;26.20
48515;DHT22;34309;47.260;2.796;2023-12-22T06:40:40;19.00;26.20
48515;DHT22;34309;47.260;2.796;2023-12-22T06:43:14;19.00;26.10
48515;DHT22;34309;47.260;2.796;2023-12-22T06:45:49;19.00;26.10
48515;DHT22;34309;47.260;2.796;2023-12-22T06:48:27;19.00;26.20
48515;DHT22;34309;47.260;2.796;2023-12-22T06:51:02;19.00;26.80
48515;DHT22;34309;47.260;2.796;2023-12-22T06:53:36;19.00;26.20
48515;DHT22;34309;47.260;2.796;2023-12-22T06:56:15;19.00;26.20
48515;DHT22;34309;47.260;2.796;2023-12-22T06:58:51;19.00;26.30
48515;DHT22;34309;47.260;2.796;2023-12-22T07:01:28;19.00;26.20
48515;DHT22;34309;47.260;2.796;2023-12-22T07:04:04;19.00;26.30
48515;DHT22;34309;47.260;2.796;2023-12-22T07:06:38;19.00;26.10
48515;DHT22;34309;47.260;2.796;2023-12-22T07:09:30;19.00;26.30
48515;DHT22;34309;47.260;2.796;2023-12-22T07:12:05;18.90;26.10
48515;DHT22;34309;47.260;2.796;2023-12-22T07:14:39;19.00;26.20
48515;DHT22;34309;47.260;2.796;2023-12-22T07:17:14;18.90;26.20
48515;DHT22;34309;47.260;2.796;2023-12-22T07:19:48;18.90;26.10
48515;DHT22;34309;47.260;2.796;2023-12-22T07:22:24;19.00;26.20
48515;DHT22;34309;47.260;2.796;2023-12-22T07:24:58;18.90;26.10
48515;DHT22;34309;47.260;2.796;2023-12-22T07:27:31;18.90;26.30
48515;DHT22;34309;47.260;2.796;2023-12-22T07:30:06;18.90;26.30
48515;DHT22;34309;47.260;2.796;2023-12-22T07:32:42;18.90;26.30
48515;DHT22;34309;47.260;2.796;2023-12-22T07:35:17;18.90;26.20
48515;DHT22;34309;47.260;2.796;2023-12-22T07:37:51;18.90;26.30
48515;DHT22;34309;47.260;2.796;2023-12-22T07:40:27;18.90;26.30
48515;DHT22;34309;47.260;2.796;2023-12-22T07:43:02;18.90;26.30
48515;DHT22;34309;47.260;2.796;2023-12-22T07:45:36;18.90;26.30
48515;DHT22;34309;47.260;2.796;2023-12-22T07:48:12;18.90;26.30
48515;DHT22;34309;47.260;2.796;2023-12-22T07:50:46;18.90;26.40
48515;DHT22;34309;47.260;2.796;2023-12-22T07:53:20;18.90;26.40
48515;DHT22;34309;47.260;2.796;2023-12-22T07:55:53;18.90;26.40
48515;DHT22;34309;47.260;2.796;2023-12-22T07:58:27;18.90;26.40
48515;DHT22;34309;47.260;2.796;2023-12-22T08:01:01;18.90;26.30
48515;DHT22;34309;47.260;2.796;2023-12-22T08:03:37;18.90;26.30
48515;DHT22;34309;47.260;2.796;2023-12-22T08:06:11;18.90;26.40
48515;DHT22;34309;47.260;2.796;2023-12-22T08:08:46;18.90;26.40
48515;DHT22;34309;47.260;2.796;2023-12-22T08:11:20;18.90;26.40
48515;DHT22;34309;47.260;2.796;2023-12-22T08:13:56;18.90;26.40
48515;DHT22;34309;47.260;2.796;2023-12-22T08:16:30;18.90;26.40
48515;DHT22;34309;47.260;2.796;2023-12-22T08:19:06;18.90;26.30
48515;DHT22;34309;47.260;2.796;2023-12-22T08:21:42;18.90;26.30
48515;DHT22;34309;47.260;2.796;2023-12-22T08:24:16;18.90;26.40
48515;DHT22;34309;47.260;2.796;2023-12-22T08:26:50;18.90;26.30
48515;DHT22;34309;47.260;2.796;2023-12-22T08:29:24;18.90;26.30
48515;DHT22;34309;47.260;2.796;2023-12-22T08:31:57;18.90;26.40
48515;DHT22;34309;47.260;2.796;2023-12-22T08:34:34;18.90;26.30
48515;DHT22;34309;47.260;2.796;2023-12-22T08:37:07;18.90;26.30
48515;DHT22;34309;47.260;2.796;2023-12-22T08:39:41;18.90;26.40
48515;DHT22;34309;47.260;2.796;2023-12-22T08:42:15;18.90;26.40
48515;DHT22;34309;47.260;2.796;2023-12-22T08:44:48;18.90;26.30
48515;DHT22;34309;47.260;2.796;2023-12-22T08:47:22;18.90;26.30
48515;DHT22;34309;47.260;2.796;2023-12-22T08:49:57;18.80;26.20
48515;DHT22;34309;47.260;2.796;2023-12-22T08:52:31;18.90;26.30
48515;DHT22;34309;47.260;2.796;2023-12-22T08:55:06;18.80;26.30
48515;DHT22;34309;47.260;2.796;2023-12-22T08:57:41;18.80;26.20
48515;DHT22;34309;47.260;2.796;2023-12-22T09:00:15;18.80;26.30
48515;DHT22;34309;47.260;2.796;2023-12-22T09:02:49;18.80;26.40
48515;DHT22;34309;47.260;2.796;2023-12-22T09:05:24;18.80;26.40
48515;DHT22;34309;47.260;2.796;2023-12-22T09:07:57;18.80;26.40
48515;DHT22;34309;47.260;2.796;2023-12-22T09:10:33;18.80;26.30
48515;DHT22;34309;47.260;2.796;2023-12-22T09:13:08;18.80;26.30
48515;DHT22;34309;47.260;2.796;2023-12-22T09:15:42;18.80;26.40
48515;DHT22;34309;47.260;2.796;2023-12-22T09:18:19;18.80;26.50
48515;DHT22;34309;47.260;2.796;2023-12-22T09:20:55;18.80;26.40
48515;DHT22;34309;47.260;2.796;2023-12-22T09:23:29;18.80;26.40
48515;DHT22;34309;47.260;2.796;2023-12-22T09:26:03;18.80;26.40
48515;DHT22;34309;47.260;2.796;2023-12-22T09:28:37;18.80;26.40
48515;DHT22;34309;47.260;2.796;2023-12-22T09:31:11;18.80;26.40
48515;DHT22;34309;47.260;2.796;2023-12-22T09:33:45;18.80;26.30
48515;DHT22;34309;47.260;2.796;2023-12-22T09:36:21;18.80;26.40
48515;DHT22;34309;47.260;2.796;2023-12-22T09:38:55;18.80;26.40
48515;DHT22;34309;47.260;2.796;2023-12-22T09:41:30;18.70;26.40
48515;DHT22;34309;47.260;2.796;2023-12-22T09:44:04;18.80;26.40
48515;DHT22;34309;47.260;2.796;2023-12-22T09:46:40;18.70;26.40
48515;DHT22;34309;47.260;2.796;2023-12-22T09:49:14;18.70;26.30
48515;DHT22;34309;47.260;2.796;2023-12-22T09:51:51;18.70;26.40
48515;DHT22;34309;47.260;2.796;2023-12-22T09:54:25;18.70;26.40
48515;DHT22;34309;47.260;2.796;2023-12-22T09:57:02;18.70;26.40
48515;DHT22;34309;47.260;2.796;2023-12-22T09:59:38;18.70;26.40
48515;DHT22;34309;47.260;2.796;2023-12-22T10:02:12;18.70;26.30
48515;DHT22;34309;47.260;2.796;2023-12-22T10:04:44;18.80;26.40
48515;DHT22;34309;47.260;2.796;2023-12-22T10:07:20;18.70;26.50
48515;DHT22;34309;47.260;2.796;2023-12-22T10:09:54;18.70;26.40
48515;DHT22;34309;47.260;2.796;2023-12-22T10:12:29;18.80;26.60
48515;DHT22;34309;47.260;2.796;2023-12-22T10:15:05;18.80;26.60
48515;DHT22;34309;47.260;2.796;2023-12-22T10:17:41;18.70;26.60
48515;DHT22;34309;47.260;2.796;2023-12-22T10:20:15;18.70;26.50
48515;DHT22;34309;47.260;2.796;2023-12-22T10:22:51;18.70;26.70
48515;DHT22;34309;47.260;2.796;2023-12-22T10:25:28;18.70;26.70
48515;DHT22;34309;47.260;2.796;2023-12-22T10:28:04;18.70;26.90
48515;DHT22;34309;47.260;2.796;2023-12-22T10:30:38;18.70;27.00
48515;DHT22;34309;47.260;2.796;2023-12-22T10:33:13;18.70;26.90
48515;DHT22;34309;47.260;2.796;2023-12-22T10:35:48;18.70;27.00
48515;DHT22;34309;47.260;2.796;2023-12-22T10:38:26;18.70;27.00
48515;DHT22;34309;47.260;2.796;2023-12-22T10:41:01;18.70;27.10
48515;DHT22;34309;47.260;2.796;2023-12-22T10:43:38;18.70;27.20
48515;DHT22;34309;47.260;2.796;2023-12-22T10:46:13;18.70;27.20
48515;DHT22;34309;47.260;2.796;2023-12-22T10:48:48;18.70;27.20
48515;DHT22;34309;47.260;2.796;2023-12-22T10:51:26;18.70;27.10
48515;DHT22;34309;47.260;2.796;2023-12-22T10:54:06;18.70;27.20
48515;DHT22;34309;47.260;2.796;2023-12-22T10:56:40;18.70;27.20
48515;DHT22;34309;47.260;2.796;2023-12-22T10:59:17;18.70;27.10
48515;DHT22;34309;47.260;2.796;2023-12-22T11:01:52;18.70;27.30
48515;DHT22;34309;47.260;2.796;2023-12-22T11:04:30;18.70;27.30
48515;DHT22;34309;47.260;2.796;2023-12-22T11:07:06;18.70;27.30
48515;DHT22;34309;47.260;2.796;2023-12-22T11:09:44;18.70;27.30
48515;DHT22;34309;47.260;2.796;2023-12-22T11:12:24;18.70;27.40
48515;DHT22;34309;47.260;2.796;2023-12-22T11:15:00;18.70;27.30
48515;DHT22;34309;47.260;2.796;2023-12-22T11:17:39;18.70;27.40
48515;DHT22;34309;47.260;2.796;2023-12-22T11:20:16;18.70;27.50
48515;DHT22;34309;47.260;2.796;2023-12-22T11:22:50;18.70;27.50
48515;DHT22;34309;47.260;2.796;2023-12-22T11:25:27;18.70;27.60
48515;DHT22;34309;47.260;2.796;2023-12-22T11:28:02;18.70;27.50
48515;DHT22;34309;47.260;2.796;2023-12-22T11:30:38;18.70;27.50
48515;DHT22;34309;47.260;2.796;2023-12-22T11:33:13;18.70;27.70
48515;DHT22;34309;47.260;2.796;2023-12-22T11:35:49;18.70;27.60
48515;DHT22;34309;47.260;2.796;2023-12-22T11:38:23;18.70;27.60
48515;DHT22;34309;47.260;2.796;2023-12-22T11:40:59;18.70;27.60
48515;DHT22;34309;47.260;2.796;2023-12-22T11:43:35;18.70;27.70
48515;DHT22;34309;47.260;2.796;2023-12-22T11:46:09;18.70;27.70
48515;DHT22;34309;47.260;2.796;2023-12-22T11:48:49;18.70;27.60
48515;DHT22;34309;47.260;2.796;2023-12-22T11:51:23;18.70;27.70
48515;DHT22;34309;47.260;2.796;2023-12-22T11:57:33;18.70;27.60
48515;DHT22;34309;47.260;2.796;2023-12-22T12:00:09;18.70;27.70
48515;DHT22;34309;47.260;2.796;2023-12-22T12:03:06;18.70;27.60
48515;DHT22;34309;47.260;2.796;2023-12-22T12:05:42;18.70;27.70
48515;DHT22;34309;47.260;2.796;2023-12-22T12:08:17;18.60;27.60
48515;DHT22;34309;47.260;2.796;2023-12-22T12:11:03;18.70;27.80
48515;DHT22;34309;47.260;2.796;2023-12-22T12:13:42;18.60;27.70
48515;DHT22;34309;47.260;2.796;2023-12-22T12:16:19;18.70;27.70
48515;DHT22;34309;47.260;2.796;2023-12-22T12:18:55;18.60;27.80
48515;DHT22;34309;47.260;2.796;2023-12-22T12:21:29;18.60;27.80
48515;DHT22;34309;47.260;2.796;2023-12-22T12:24:04;18.60;27.80
48515;DHT22;34309;47.260;2.796;2023-12-22T12:26:38;18.70;27.80
48515;DHT22;34309;47.260;2.796;2023-12-22T12:29:16;18.60;27.90
48515;DHT22;34309;47.260;2.796;2023-12-22T12:31:51;18.70;27.90
48515;DHT22;34309;47.260;2.796;2023-12-22T12:34:25;18.60;27.80
48515;DHT22;34309;47.260;2.796;2023-12-22T12:37:01;18.60;27.80
48515;DHT22;34309;47.260;2.796;2023-12-22T12:39:38;18.60;27.80
48515;DHT22;34309;47.260;2.796;2023-12-22T12:42:16;18.60;27.70
48515;DHT22;34309;47.260;2.796;2023-12-22T12:44:53;18.60;27.70
48515;DHT22;34309;47.260;2.796;2023-12-22T12:47:27;18.60;27.70
48515;DHT22;34309;47.260;2.796;2023-12-22T12:50:02;18.60;27.80
48515;DHT22;34309;47.260;2.796;2023-12-22T12:52:37;18.60;27.70
48515;DHT22;34309;47.260;2.796;2023-12-22T12:55:11;18.60;27.70
48515;DHT22;34309;47.260;2.796;2023-12-22T12:57:48;18.60;27.80
48515;DHT22;34309;47.260;2.796;2023-12-22T13:00:28;18.60;27.70
48515;DHT22;34309;47.260;2.796;2023-12-22T13:03:04;18.60;28.40
48515;DHT22;34309;47.260;2.796;2023-12-22T13:05:38;18.60;27.70
48515;DHT22;34309;47.260;2.796;2023-12-22T13:08:13;18.60;27.70
48515;DHT22;34309;47.260;2.796;2023-12-22T13:10:47;18.60;27.80
48515;DHT22;34309;47.260;2.796;2023-12-22T13:13:21;18.60;27.90
48515;DHT22;34309;47.260;2.796;2023-12-22T13:15:56;18.60;27.80
48515;DHT22;34309;47.260;2.796;2023-12-22T13:18:31;18.60;27.80
48515;DHT22;34309;47.260;2.796;2023-12-22T13:21:05;18.60;28.40
48515;DHT22;34309;47.260;2.796;2023-12-22T13:23:39;18.60;27.90
48515;DHT22;34309;47.260;2.796;2023-12-22T13:26:19;18.60;27.90
48515;DHT22;34309;47.260;2.796;2023-12-22T13:28:57;18.60;28.00
48515;DHT22;34309;47.260;2.796;2023-12-22T13:31:36;18.60;27.80
48515;DHT22;34309;47.260;2.796;2023-12-22T13:34:10;18.60;27.90
48515;DHT22;34309;47.260;2.796;2023-12-22T13:36:44;18.60;27.80
48515;DHT22;34309;47.260;2.796;2023-12-22T13:39:18;18.60;27.80
48515;DHT22;34309;47.260;2.796;2023-12-22T13:41:53;18.60;27.70
48515;DHT22;34309;47.260;2.796;2023-12-22T13:44:27;18.60;27.80
48515;DHT22;34309;47.260;2.796;2023-12-22T13:47:05;18.60;27.80
48515;DHT22;34309;47.260;2.796;2023-12-22T13:49:39;18.60;27.80
48515;DHT22;34309;47.260;2.796;2023-12-22T13:52:26;18.60;27.70
48515;DHT22;34309;47.260;2.796;2023-12-22T13:55:01;18.60;27.80
48515;DHT22;34309;47.260;2.796;2023-12-22T13:57:35;18.60;27.80
48515;DHT22;34309;47.260;2.796;2023-12-22T14:00:30;18.60;27.80
48515;DHT22;34309;47.260;2.796;2023-12-22T14:03:05;18.60;27.70
48515;DHT22;34309;47.260;2.796;2023-12-22T14:05:39;18.60;27.80
48515;DHT22;34309;47.260;2.796;2023-12-22T14:08:13;18.60;27.80
48515;DHT22;34309;47.260;2.796;2023-12-22T14:10:47;18.60;27.80
48515;DHT22;34309;47.260;2.796;2023-12-22T14:13:21;18.50;27.60
48515;DHT22;34309;47.260;2.796;2023-12-22T14:15:55;18.60;27.70
48515;DHT22;34309;47.260;2.796;2023-12-22T14:18:30;18.50;27.70
48515;DHT22;34309;47.260;2.796;2023-12-22T14:21:04;18.50;27.80
48515;DHT22;34309;47.260;2.796;2023-12-22T14:23:39;18.60;27.80
48515;DHT22;34309;47.260;2.796;2023-12-22T14:26:12;18.60;27.70
48515;DHT22;34309;47.260;2.796;2023-12-22T14:28:49;18.60;27.70
48515;DHT22;34309;47.260;2.796;2023-12-22T14:31:23;18.60;27.70
48515;DHT22;34309;47.260;2.796;2023-12-22T14:33:58;18.60;27.70
48515;DHT22;34309;47.260;2.796;2023-12-22T14:36:32;18.50;27.60
48515;DHT22;34309;47.260;2.796;2023-12-22T14:39:05;18.60;27.50
48515;DHT22;34309;47.260;2.796;2023-12-22T14:41:45;18.50;27.60
48515;DHT22;34309;47.260;2.796;2023-12-22T14:44:18;18.50;27.50
48515;DHT22;34309;47.260;2.796;2023-12-22T14:46:52;18.50;27.50
48515;DHT22;34309;47.260;2.796;2023-12-22T14:49:30;18.50;27.50
48515;DHT22;34309;47.260;2.796;2023-12-22T14:52:04;18.50;27.60
48515;DHT22;34309;47.260;2.796;2023-12-22T14:54:37;18.50;27.50
48515;DHT22;34309;47.260;2.796;2023-12-22T14:57:11;18.50;27.40
48515;DHT22;34309;47.260;2.796;2023-12-22T14:59:46;18.50;27.50
48515;DHT22;34309;47.260;2.796;2023-12-22T15:02:20;18.50;27.50
48515;DHT22;34309;47.260;2.796;2023-12-22T15:04:55;18.50;27.60
48515;DHT22;34309;47.260;2.796;2023-12-22T15:07:29;18.50;27.50
48515;DHT22;34309;47.260;2.796;2023-12-22T15:10:03;18.50;27.50
48515;DHT22;34309;47.260;2.796;2023-12-22T15:12:38;18.50;27.60
48515;DHT22;34309;47.260;2.796;2023-12-22T15:15:14;18.50;27.50
48515;DHT22;34309;47.260;2.796;2023-12-22T15:17:49;18.50;27.40
48515;DHT22;34309;47.260;2.796;2023-12-22T15:20:25;18.50;27.40
48515;DHT22;34309;47.260;2.796;2023-12-22T15:22:59;18.50;27.50
48515;DHT22;34309;47.260;2.796;2023-12-22T15:25:33;18.50;27.50
48515;DHT22;34309;47.260;2.796;2023-12-22T15:28:08;18.50;27.50
48515;DHT22;34309;47.260;2.796;2023-12-22T15:30:42;18.50;27.50
48515;DHT22;34309;47.260;2.796;2023-12-22T15:33:16;18.50;27.50
48515;DHT22;34309;47.260;2.796;2023-12-22T15:35:55;18.50;27.60
48515;DHT22;34309;47.260;2.796;2023-12-22T15:38:29;18.50;27.50
48515;DHT22;34309;47.260;2.796;2023-12-22T15:41:00;18.50;27.50
48515;DHT22;34309;47.260;2.796;2023-12-22T15:43:34;18.50;27.60
48515;DHT22;34309;47.260;2.796;2023-12-22T15:46:08;18.50;27.50
48515;DHT22;34309;47.260;2.796;2023-12-22T15:48:43;18.40;27.50
48515;DHT22;34309;47.260;2.796;2023-12-22T15:51:18;18.50;27.60
48515;DHT22;34309;47.260;2.796;2023-12-22T15:53:55;18.40;27.50
48515;DHT22;34309;47.260;2.796;2023-12-22T15:56:29;18.50;27.50
48515;DHT22;34309;47.260;2.796;2023-12-22T15:59:05;18.40;27.50
48515;DHT22;34309;47.260;2.796;2023-12-22T16:01:43;18.40;27.30
48515;DHT22;34309;47.260;2.796;2023-12-22T16:04:18;18.50;27.40
48515;DHT22;34309;47.260;2.796;2023-12-22T16:06:53;18.40;27.40
48515;DHT22;34309;47.260;2.796;2023-12-22T16:09:28;18.40;27.40
48515;DHT22;34309;47.260;2.796;2023-12-22T16:12:02;18.40;27.20
48515;DHT22;34309;47.260;2.796;2023-12-22T16:14:37;18.40;27.30
48515;DHT22;34309;47.260;2.796;2023-12-22T16:17:11;18.40;27.20
48515;DHT22;34309;47.260;2.796;2023-12-22T16:19:46;18.40;27.20
48515;DHT22;34309;47.260;2.796;2023-12-22T16:22:22;18.40;27.10